sensor_id;sensor_type;location;lat;lon;timestamp;temperature;humidity
84173;DHT22;74302;40.122;18.310;2024-03-23T00:53:55;14.30;64.50
84173;DHT22;74302;40.122;18.310;2024-03-23T00:55:38;14.30;64.50
84173;DHT22;74302;40.122;18.310;2024-03-23T00:57:21;14.30;64.50
84173;DHT22;74302;40.122;18.310;2024-03-23T00:59:03;14.30;64.50
84173;DHT22;74302;40.122;18.310;2024-03-23T01:00:46;14.30;64.50
84173;DHT22;74302;40.122;18.310;2024-03-23T01:02:29;14.30;64.60
84173;DHT22;74302;40.122;18.310;2024-03-23T01:04:11;14.30;64.60
84173;DHT22;74302;40.122;18.310;2024-03-23T01:05:54;14.30;64.60
84173;DHT22;74302;40.122;18.310;2024-03-23T01:07:37;14.30;64.70
84173;DHT22;74302;40.122;18.310;2024-03-23T01:09:21;14.20;64.80
84173;DHT22;74302;40.122;18.310;2024-03-23T01:11:04;14.20;64.80
84173;DHT22;74302;40.122;18.310;2024-03-23T01:12:47;14.20;64.80
84173;DHT22;74302;40.122;18.310;2024-03-23T01:14:29;14.20;64.80
84173;DHT22;74302;40.122;18.310;2024-03-23T01:16:11;14.30;64.90
84173;DHT22;74302;40.122;18.310;2024-03-23T01:17:55;14.30;64.80
84173;DHT22;74302;40.122;18.310;2024-03-23T01:19:37;14.30;64.90
84173;DHT22;74302;40.122;18.310;2024-03-23T01:21:21;14.30;64.90
84173;DHT22;74302;40.122;18.310;2024-03-23T01:23:03;14.30;64.80
84173;DHT22;74302;40.122;18.310;2024-03-23T01:24:46;14.30;64.80
84173;DHT22;74302;40.122;18.310;2024-03-23T01:26:30;14.40;64.80
84173;DHT22;74302;40.122;18.310;2024-03-23T01:28:12;14.40;64.90
84173;DHT22;74302;40.122;18.310;2024-03-23T01:29:55;14.40;64.80
84173;DHT22;74302;40.122;18.310;2024-03-23T01:31:37;14.50;64.90
84173;DHT22;74302;40.122;18.310;2024-03-23T01:33:21;14.50;64.80
84173;DHT22;74302;40.122;18.310;2024-03-23T01:35:03;14.50;64.80
84173;DHT22;74302;40.122;18.310;2024-03-23T01:36:45;14.50;64.80
84173;DHT22;74302;40.122;18.310;2024-03-23T01:38:29;14.60;64.80
84173;DHT22;74302;40.122;18.310;2024-03-23T01:40:13;14.60;64.80
84173;DHT22;74302;40.122;18.310;2024-03-23T01:41:56;14.60;64.80
84173;DHT22;74302;40.122;18.310;2024-03-23T01:43:38;14.60;64.70
84173;DHT22;74302;40.122;18.310;2024-03-23T01:45:20;14.60;64.70
84173;DHT22;74302;40.122;18.310;2024-03-23T01:47:03;14.60;64.80
84173;DHT22;74302;40.122;18.310;2024-03-23T01:48:46;14.60;64.80
84173;DHT22;74302;40.122;18.310;2024-03-23T01:50:30;14.60;64.80
84173;DHT22;74302;40.122;18.310;2024-03-23T01:52:15;14.60;64.80
84173;DHT22;74302;40.122;18.310;2024-03-23T01:53:59;14.60;64.90
84173;DHT22;74302;40.122;18.310;2024-03-23T01:55:44;14.60;64.90
84173;DHT22;74302;40.122;18.310;2024-03-23T01:57:26;14.60;64.90
84173;DHT22;74302;40.122;18.310;2024-03-23T01:59:09;14.60;65.00
84173;DHT22;74302;40.122;18.310;2024-03-23T02:00:51;14.60;65.00
84173;DHT22;74302;40.122;18.310;2024-03-23T02:02:34;14.60;65.00
84173;DHT22;74302;40.122;18.310;2024-03-23T02:04:16;14.60;65.00
84173;DHT22;74302;40.122;18.310;2024-03-23T02:05:59;14.60;65.10
84173;DHT22;74302;40.122;18.310;2024-03-23T02:07:42;14.60;65.10
84173;DHT22;74302;40.122;18.310;2024-03-23T02:09:24;14.60;65.10
84173;DHT22;74302;40.122;18.310;2024-03-23T02:11:08;14.70;65.10
84173;DHT22;74302;40.122;18.310;2024-03-23T02:12:51;14.70;65.10
84173;DHT22;74302;40.122;18.310;2024-03-23T02:14:33;14.70;65.10
84173;DHT22;74302;40.122;18.310;2024-03-23T02:16:15;14.70;65.10
84173;DHT22;74302;40.122;18.310;2024-03-23T02:17:58;14.70;65.10
84173;DHT22;74302;40.122;18.310;2024-03-23T02:19:41;14.70;65.10
84173;DHT22;74302;40.122;18.310;2024-03-23T02:21:24;14.70;65.20
84173;DHT22;74302;40.122;18.310;2024-03-23T02:23:13;14.70;65.20
84173;DHT22;74302;40.122;18.310;2024-03-23T02:24:55;14.70;65.30
84173;DHT22;74302;40.122;18.310;2024-03-23T02:26:38;14.70;65.20
84173;DHT22;74302;40.122;18.310;2024-03-23T02:28:20;14.70;65.20
84173;DHT22;74302;40.122;18.310;2024-03-23T02:30:05;14.70;65.30
84173;DHT22;74302;40.122;18.310;2024-03-23T02:31:47;14.70;65.30
84173;DHT22;74302;40.122;18.310;2024-03-23T02:33:31;14.70;65.30
84173;DHT22;74302;40.122;18.310;2024-03-23T02:35:14;14.70;65.30
84173;DHT22;74302;40.122;18.310;2024-03-23T02:36:56;14.70;65.40
84173;DHT22;74302;40.122;18.310;2024-03-23T02:38:41;14.70;65.40
84173;DHT22;74302;40.122;18.310;2024-03-23T02:40:23;14.70;65.40
84173;DHT22;74302;40.122;18.310;2024-03-23T02:42:06;14.70;65.40
84173;DHT22;74302;40.122;18.310;2024-03-23T02:43:49;14.60;65.50
84173;DHT22;74302;40.122;18.310;2024-03-23T02:45:32;14.60;65.50
84173;DHT22;74302;40.122;18.310;2024-03-23T02:47:15;14.60;65.60
84173;DHT22;74302;40.122;18.310;2024-03-23T02:48:57;14.60;65.60
84173;DHT22;74302;40.122;18.310;2024-03-23T02:50:39;14.60;65.70
84173;DHT22;74302;40.122;18.310;2024-03-23T02:52:22;14.60;65.70
84173;DHT22;74302;40.122;18.310;2024-03-23T02:54:06;14.60;65.70
84173;DHT22;74302;40.122;18.310;2024-03-23T02:55:48;14.50;65.80
84173;DHT22;74302;40.122;18.310;2024-03-23T02:57:31;14.50;65.80
84173;DHT22;74302;40.122;18.310;2024-03-23T02:59:13;14.50;65.80
84173;DHT22;74302;40.122;18.310;2024-03-23T03:00:56;14.50;65.90
84173;DHT22;74302;40.122;18.310;2024-03-23T03:02:38;14.50;65.90
84173;DHT22;74302;40.122;18.310;2024-03-23T03:04:22;14.40;65.90
84173;DHT22;74302;40.122;18.310;2024-03-23T03:06:04;14.50;65.90
84173;DHT22;74302;40.122;18.310;2024-03-23T03:07:47;14.40;66.00
84173;DHT22;74302;40.122;18.310;2024-03-23T03:09:31;14.40;66.00
84173;DHT22;74302;40.122;18.310;2024-03-23T03:11:14;14.40;66.00
84173;DHT22;74302;40.122;18.310;2024-03-23T03:12:57;14.40;66.00
84173;DHT22;74302;40.122;18.310;2024-03-23T03:14:39;14.40;66.10
84173;DHT22;74302;40.122;18.310;2024-03-23T03:16:23;14.40;66.10
84173;DHT22;74302;40.122;18.310;2024-03-23T03:18:05;14.30;66.10
84173;DHT22;74302;40.122;18.310;2024-03-23T03:19:48;14.30;66.20
84173;DHT22;74302;40.122;18.310;2024-03-23T03:21:30;14.30;66.10
84173;DHT22;74302;40.122;18.310;2024-03-23T03:23:14;14.30;66.20
84173;DHT22;74302;40.122;18.310;2024-03-23T03:24:57;14.20;66.20
84173;DHT22;74302;40.122;18.310;2024-03-23T03:26:39;14.20;66.20
84173;DHT22;74302;40.122;18.310;2024-03-23T03:28:22;14.20;66.20
84173;DHT22;74302;40.122;18.310;2024-03-23T03:30:05;14.20;66.20
84173;DHT22;74302;40.122;18.310;2024-03-23T03:31:50;14.20;66.20
84173;DHT22;74302;40.122;18.310;2024-03-23T03:33:32;14.20;66.30
84173;DHT22;74302;40.122;18.310;2024-03-23T03:35:15;14.20;66.30
84173;DHT22;74302;40.122;18.310;2024-03-23T03:36:58;14.20;66.30
84173;DHT22;74302;40.122;18.310;2024-03-23T03:38:41;14.20;66.30
84173;DHT22;74302;40.122;18.310;2024-03-23T03:40:25;14.20;66.40
84173;DHT22;74302;40.122;18.310;2024-03-23T03:42:07;14.20;66.40
84173;DHT22;74302;40.122;18.310;2024-03-23T03:43:50;14.20;66.30
84173;DHT22;74302;40.122;18.310;2024-03-23T03:45:33;14.20;66.40
84173;DHT22;74302;40.122;18.310;2024-03-23T03:47:15;14.20;66.40
84173;DHT22;74302;40.122;18.310;2024-03-23T03:48:57;14.20;66.40
84173;DHT22;74302;40.122;18.310;2024-03-23T03:50:40;14.20;66.40
84173;DHT22;74302;40.122;18.310;2024-03-23T03:52:23;14.20;66.40
84173;DHT22;74302;40.122;18.310;2024-03-23T03:54:06;14.20;66.50
84173;DHT22;74302;40.122;18.310;2024-03-23T03:55:49;14.20;66.50
84173;DHT22;74302;40.122;18.310;2024-03-23T03:57:32;14.10;66.50
84173;DHT22;74302;40.122;18.310;2024-03-23T03:59:17;14.10;66.50
84173;DHT22;74302;40.122;18.310;2024-03-23T04:00:59;14.10;66.50
84173;DHT22;74302;40.122;18.310;2024-03-23T04:02:41;14.10;66.50
84173;DHT22;74302;40.122;18.310;2024-03-23T04:04:24;14.10;66.60
84173;DHT22;74302;40.122;18.310;2024-03-23T04:06:06;14.00;66.60
84173;DHT22;74302;40.122;18.310;2024-03-23T04:07:50;14.00;66.60
84173;DHT22;74302;40.122;18.310;2024-03-23T04:09:32;14.00;66.60
84173;DHT22;74302;40.122;18.310;2024-03-23T04:11:15;14.00;66.60
84173;DHT22;74302;40.122;18.310;2024-03-23T04:12:58;14.00;66.60
84173;DHT22;74302;40.122;18.310;2024-03-23T04:14:40;13.90;66.70
84173;DHT22;74302;40.122;18.310;2024-03-23T04:16:27;14.00;66.70
84173;DHT22;74302;40.122;18.310;2024-03-23T04:18:09;14.00;66.70
84173;DHT22;74302;40.122;18.310;2024-03-23T04:19:52;14.00;66.70
84173;DHT22;74302;40.122;18.310;2024-03-23T04:21:38;14.00;66.70
84173;DHT22;74302;40.122;18.310;2024-03-23T04:23:21;14.00;66.60
84173;DHT22;74302;40.122;18.310;2024-03-23T04:25:04;14.00;66.60
84173;DHT22;74302;40.122;18.310;2024-03-23T04:26:49;14.00;66.70
84173;DHT22;74302;40.122;18.310;2024-03-23T04:28:32;14.00;66.70
84173;DHT22;74302;40.122;18.310;2024-03-23T04:30:15;13.90;66.70
84173;DHT22;74302;40.122;18.310;2024-03-23T04:31:58;13.90;66.70
84173;DHT22;74302;40.122;18.310;2024-03-23T04:33:40;13.90;66.70
84173;DHT22;74302;40.122;18.310;2024-03-23T04:35:23;13.90;66.70
84173;DHT22;74302;40.122;18.310;2024-03-23T04:37:07;13.90;66.80
84173;DHT22;74302;40.122;18.310;2024-03-23T04:38:50;13.90;66.70
84173;DHT22;74302;40.122;18.310;2024-03-23T04:40:34;13.80;66.80
84173;DHT22;74302;40.122;18.310;2024-03-23T04:42:18;13.90;66.80
84173;DHT22;74302;40.122;18.310;2024-03-23T04:44:00;13.80;66.80
84173;DHT22;74302;40.122;18.310;2024-03-23T04:45:43;13.80;66.80
84173;DHT22;74302;40.122;18.310;2024-03-23T04:47:26;13.80;66.80
84173;DHT22;74302;40.122;18.310;2024-03-23T04:49:10;13.80;66.80
84173;DHT22;74302;40.122;18.310;2024-03-23T04:50:55;13.90;66.80
84173;DHT22;74302;40.122;18.310;2024-03-23T04:52:39;13.80;66.70
84173;DHT22;74302;40.122;18.310;2024-03-23T04:54:25;13.80;66.70
84173;DHT22;74302;40.122;18.310;2024-03-23T04:56:08;13.80;66.70
84173;DHT22;74302;40.122;18.310;2024-03-23T04:57:51;13.80;66.70
84173;DHT22;74302;40.122;18.310;2024-03-23T04:59:34;13.80;66.70
84173;DHT22;74302;40.122;18.310;2024-03-23T05:01:17;13.80;66.60
84173;DHT22;74302;40.122;18.310;2024-03-23T05:02:59;13.80;66.50
84173;DHT22;74302;40.122;18.310;2024-03-23T05:04:42;13.80;66.50
84173;DHT22;74302;40.122;18.310;2024-03-23T05:06:24;13.70;66.50
84173;DHT22;74302;40.122;18.310;2024-03-23T05:08:07;13.80;66.60
84173;DHT22;74302;40.122;18.310;2024-03-23T05:09:50;13.80;66.60
84173;DHT22;74302;40.122;18.310;2024-03-23T05:11:32;13.80;66.50
84173;DHT22;74302;40.122;18.310;2024-03-23T05:13:16;13.70;66.40
84173;DHT22;74302;40.122;18.310;2024-03-23T05:14:59;13.80;66.40
84173;DHT22;74302;40.122;18.310;2024-03-23T05:16:42;13.70;66.40
84173;DHT22;74302;40.122;18.310;2024-03-23T05:18:25;13.80;66.50
84173;DHT22;74302;40.122;18.310;2024-03-23T05:20:10;13.80;66.40
84173;DHT22;74302;40.122;18.310;2024-03-23T05:21:54;13.90;66.40
84173;DHT22;74302;40.122;18.310;2024-03-23T05:23:36;13.90;66.40
84173;DHT22;74302;40.122;18.310;2024-03-23T05:25:19;13.90;66.30
84173;DHT22;74302;40.122;18.310;2024-03-23T05:27:03;14.00;66.20
84173;DHT22;74302;40.122;18.310;2024-03-23T05:28:46;14.10;66.10
84173;DHT22;74302;40.122;18.310;2024-03-23T05:30:29;14.20;66.00
84173;DHT22;74302;40.122;18.310;2024-03-23T05:32:12;14.20;65.90
84173;DHT22;74302;40.122;18.310;2024-03-23T05:33:54;14.30;65.80
84173;DHT22;74302;40.122;18.310;2024-03-23T05:35:38;14.40;65.80
84173;DHT22;74302;40.122;18.310;2024-03-23T05:37:20;14.50;65.70
84173;DHT22;74302;40.122;18.310;2024-03-23T05:39:03;14.60;65.60
84173;DHT22;74302;40.122;18.310;2024-03-23T05:40:53;14.60;65.50
84173;DHT22;74302;40.122;18.310;2024-03-23T05:42:35;14.60;65.50
84173;DHT22;74302;40.122;18.310;2024-03-23T05:44:20;14.70;65.40
84173;DHT22;74302;40.122;18.310;2024-03-23T05:46:02;14.70;65.40
84173;DHT22;74302;40.122;18.310;2024-03-23T05:47:45;14.80;65.30
84173;DHT22;74302;40.122;18.310;2024-03-23T05:49:28;14.90;65.20
84173;DHT22;74302;40.122;18.310;2024-03-23T05:51:10;15.00;65.10
84173;DHT22;74302;40.122;18.310;2024-03-23T05:52:54;15.10;65.00
84173;DHT22;74302;40.122;18.310;2024-03-23T05:54:37;15.20;64.90
84173;DHT22;74302;40.122;18.310;2024-03-23T05:56:19;15.40;64.70
84173;DHT22;74302;40.122;18.310;2024-03-23T05:58:02;15.60;64.50
84173;DHT22;74302;40.122;18.310;2024-03-23T05:59:46;15.70;64.30
84173;DHT22;74302;40.122;18.310;2024-03-23T06:01:28;15.80;64.10
84173;DHT22;74302;40.122;18.310;2024-03-23T06:03:12;15.90;64.00
84173;DHT22;74302;40.122;18.310;2024-03-23T06:04:55;16.10;63.80
84173;DHT22;74302;40.122;18.310;2024-03-23T06:06:37;16.20;63.70
84173;DHT22;74302;40.122;18.310;2024-03-23T06:08:20;16.30;63.50
84173;DHT22;74302;40.122;18.310;2024-03-23T06:10:03;16.40;63.40
84173;DHT22;74302;40.122;18.310;2024-03-23T06:11:48;16.60;63.30
84173;DHT22;74302;40.122;18.310;2024-03-23T06:13:31;16.70;63.10
84173;DHT22;74302;40.122;18.310;2024-03-23T06:15:15;16.70;63.00
84173;DHT22;74302;40.122;18.310;2024-03-23T06:17:15;16.90;62.90
84173;DHT22;74302;40.122;18.310;2024-03-23T06:18:59;17.00;62.70
84173;DHT22;74302;40.122;18.310;2024-03-23T06:20:41;17.20;62.60
84173;DHT22;74302;40.122;18.310;2024-03-23T06:22:25;17.40;62.40
84173;DHT22;74302;40.122;18.310;2024-03-23T06:24:07;17.60;62.20
84173;DHT22;74302;40.122;18.310;2024-03-23T06:25:49;17.70;61.90
84173;DHT22;74302;40.122;18.310;2024-03-23T06:27:32;17.80;61.70
84173;DHT22;74302;40.122;18.310;2024-03-23T06:29:14;17.90;61.70
84173;DHT22;74302;40.122;18.310;2024-03-23T06:30:59;18.00;61.60
84173;DHT22;74302;40.122;18.310;2024-03-23T06:32:41;18.20;61.40
84173;DHT22;74302;40.122;18.310;2024-03-23T06:34:24;18.60;61.10
84173;DHT22;74302;40.122;18.310;2024-03-23T06:36:09;19.00;60.70
84173;DHT22;74302;40.122;18.310;2024-03-23T06:37:51;19.30;60.20
84173;DHT22;74302;40.122;18.310;2024-03-23T06:39:35;19.70;59.70
84173;DHT22;74302;40.122;18.310;2024-03-23T06:41:17;20.20;59.20
84173;DHT22;74302;40.122;18.310;2024-03-23T06:43:00;20.70;58.60
84173;DHT22;74302;40.122;18.310;2024-03-23T06:44:43;20.90;58.10
84173;DHT22;74302;40.122;18.310;2024-03-23T06:46:28;21.00;57.90
84173;DHT22;74302;40.122;18.310;2024-03-23T06:48:10;21.00;58.00
84173;DHT22;74302;40.122;18.310;2024-03-23T06:49:53;21.20;57.90
84173;DHT22;74302;40.122;18.310;2024-03-23T06:51:35;21.30;57.80
84173;DHT22;74302;40.122;18.310;2024-03-23T06:53:19;21.60;57.70
84173;DHT22;74302;40.122;18.310;2024-03-23T06:55:01;21.80;57.30
84173;DHT22;74302;40.122;18.310;2024-03-23T06:56:46;22.20;57.00
84173;DHT22;74302;40.122;18.310;2024-03-23T06:58:28;22.60;56.70
84173;DHT22;74302;40.122;18.310;2024-03-23T07:00:12;23.20;56.20
84173;DHT22;74302;40.122;18.310;2024-03-23T07:01:57;23.80;55.40
84173;DHT22;74302;40.122;18.310;2024-03-23T07:03:40;24.40;54.60
84173;DHT22;74302;40.122;18.310;2024-03-23T07:05:22;24.50;54.20
84173;DHT22;74302;40.122;18.310;2024-03-23T07:07:05;24.30;54.40
84173;DHT22;74302;40.122;18.310;2024-03-23T07:08:48;24.10;54.80
84173;DHT22;74302;40.122;18.310;2024-03-23T07:10:31;24.00;55.20
84173;DHT22;74302;40.122;18.310;2024-03-23T07:12:13;24.10;55.20
84173;DHT22;74302;40.122;18.310;2024-03-23T07:13:56;24.30;55.00
84173;DHT22;74302;40.122;18.310;2024-03-23T07:15:38;24.50;54.90
84173;DHT22;74302;40.122;18.310;2024-03-23T07:17:23;25.70;54.30
84173;DHT22;74302;40.122;18.310;2024-03-23T07:19:05;27.30;52.30
84173;DHT22;74302;40.122;18.310;2024-03-23T07:20:54;28.10;50.90
84173;DHT22;74302;40.122;18.310;2024-03-23T07:22:36;29.00;50.00
84173;DHT22;74302;40.122;18.310;2024-03-23T07:24:18;30.10;48.90
84173;DHT22;74302;40.122;18.310;2024-03-23T07:26:03;30.20;48.30
84173;DHT22;74302;40.122;18.310;2024-03-23T07:27:46;30.90;48.20
84173;DHT22;74302;40.122;18.310;2024-03-23T07:29:28;32.20;47.00
84173;DHT22;74302;40.122;18.310;2024-03-23T07:31:12;32.80;46.10
84173;DHT22;74302;40.122;18.310;2024-03-23T07:32:56;32.90;46.00
84173;DHT22;74302;40.122;18.310;2024-03-23T07:34:38;33.80;45.50
84173;DHT22;74302;40.122;18.310;2024-03-23T07:36:21;34.80;44.50
84173;DHT22;74302;40.122;18.310;2024-03-23T07:38:03;35.70;43.70
84173;DHT22;74302;40.122;18.310;2024-03-23T07:39:47;36.60;42.90
84173;DHT22;74302;40.122;18.310;2024-03-23T07:41:30;37.10;42.20
84173;DHT22;74302;40.122;18.310;2024-03-23T07:43:12;37.40;42.10
84173;DHT22;74302;40.122;18.310;2024-03-23T07:44:54;37.70;41.40
84173;DHT22;74302;40.122;18.310;2024-03-23T07:46:38;37.60;41.30
84173;DHT22;74302;40.122;18.310;2024-03-23T07:48:22;37.10;41.80
84173;DHT22;74302;40.122;18.310;2024-03-23T07:50:05;36.10;42.10
84173;DHT22;74302;40.122;18.310;2024-03-23T07:51:49;34.80;43.50
84173;DHT22;74302;40.122;18.310;2024-03-23T07:53:31;33.40;44.90
84173;DHT22;74302;40.122;18.310;2024-03-23T07:55:14;32.00;46.50
84173;DHT22;74302;40.122;18.310;2024-03-23T07:56:57;30.70;48.00
84173;DHT22;74302;40.122;18.310;2024-03-23T07:58:40;29.30;49.60
84173;DHT22;74302;40.122;18.310;2024-03-23T08:00:22;28.30;51.10
84173;DHT22;74302;40.122;18.310;2024-03-23T08:02:05;27.50;52.20
84173;DHT22;74302;40.122;18.310;2024-03-23T08:03:49;26.90;53.00
84173;DHT22;74302;40.122;18.310;2024-03-23T08:05:33;26.40;53.50
84173;DHT22;74302;40.122;18.310;2024-03-23T08:07:16;26.00;53.90
84173;DHT22;74302;40.122;18.310;2024-03-23T08:08:59;25.60;54.30
84173;DHT22;74302;40.122;18.310;2024-03-23T08:10:48;25.30;54.60
84173;DHT22;74302;40.122;18.310;2024-03-23T08:12:30;24.90;54.90
84173;DHT22;74302;40.122;18.310;2024-03-23T08:14:13;24.60;55.20
84173;DHT22;74302;40.122;18.310;2024-03-23T08:15:57;24.20;55.50
84173;DHT22;74302;40.122;18.310;2024-03-23T08:17:40;23.80;55.80
84173;DHT22;74302;40.122;18.310;2024-03-23T08:19:23;23.50;56.20
84173;DHT22;74302;40.122;18.310;2024-03-23T08:21:06;23.30;56.40
84173;DHT22;74302;40.122;18.310;2024-03-23T08:22:49;23.20;56.50
84173;DHT22;74302;40.122;18.310;2024-03-23T08:24:31;23.00;56.60
84173;DHT22;74302;40.122;18.310;2024-03-23T08:26:15;22.90;56.70
84173;DHT22;74302;40.122;18.310;2024-03-23T08:27:58;22.80;56.70
84173;DHT22;74302;40.122;18.310;2024-03-23T08:29:40;22.70;56.70
84173;DHT22;74302;40.122;18.310;2024-03-23T08:31:23;22.60;56.70
84173;DHT22;74302;40.122;18.310;2024-03-23T08:33:05;22.50;56.70
84173;DHT22;74302;40.122;18.310;2024-03-23T08:34:49;22.40;56.70
84173;DHT22;74302;40.122;18.310;2024-03-23T08:36:32;22.40;56.70
84173;DHT22;74302;40.122;18.310;2024-03-23T08:38:14;22.30;56.70
84173;DHT22;74302;40.122;18.310;2024-03-23T08:39:57;22.30;56.60
84173;DHT22;74302;40.122;18.310;2024-03-23T08:41:39;22.20;56.60
84173;DHT22;74302;40.122;18.310;2024-03-23T08:43:24;22.20;56.60
84173;DHT22;74302;40.122;18.310;2024-03-23T08:45:07;22.20;56.60
84173;DHT22;74302;40.122;18.310;2024-03-23T08:46:49;22.10;56.60
84173;DHT22;74302;40.122;18.310;2024-03-23T08:48:32;22.00;56.50
84173;DHT22;74302;40.122;18.310;2024-03-23T08:50:16;21.90;56.60
84173;DHT22;74302;40.122;18.310;2024-03-23T08:51:59;21.90;56.70
84173;DHT22;74302;40.122;18.310;2024-03-23T08:53:42;21.80;56.70
84173;DHT22;74302;40.122;18.310;2024-03-23T08:55:25;21.80;56.60
84173;DHT22;74302;40.122;18.310;2024-03-23T08:57:08;21.80;56.60
84173;DHT22;74302;40.122;18.310;2024-03-23T08:58:50;21.80;56.60
84173;DHT22;74302;40.122;18.310;2024-03-23T09:00:33;21.90;56.60
84173;DHT22;74302;40.122;18.310;2024-03-23T09:02:15;21.90;56.50
84173;DHT22;74302;40.122;18.310;2024-03-23T09:03:59;21.90;56.40
84173;DHT22;74302;40.122;18.310;2024-03-23T09:05:42;21.90;56.40
84173;DHT22;74302;40.122;18.310;2024-03-23T09:07:24;21.80;56.20
84173;DHT22;74302;40.122;18.310;2024-03-23T09:09:08;21.80;56.40
84173;DHT22;74302;40.122;18.310;2024-03-23T09:10:50;21.70;56.40
84173;DHT22;74302;40.122;18.310;2024-03-23T09:12:32;21.70;56.40
84173;DHT22;74302;40.122;18.310;2024-03-23T09:14:15;21.70;56.20
84173;DHT22;74302;40.122;18.310;2024-03-23T09:15:57;21.60;56.30
84173;DHT22;74302;40.122;18.310;2024-03-23T09:17:39;21.60;56.40
84173;DHT22;74302;40.122;18.310;2024-03-23T09:19:22;21.50;56.40
84173;DHT22;74302;40.122;18.310;2024-03-23T09:21:11;21.50;56.40
84173;DHT22;74302;40.122;18.310;2024-03-23T09:22:55;21.40;56.50
84173;DHT22;74302;40.122;18.310;2024-03-23T09:24:37;21.20;56.60
84173;DHT22;74302;40.122;18.310;2024-03-23T09:26:20;21.20;56.70
84173;DHT22;74302;40.122;18.310;2024-03-23T09:28:03;21.20;56.80
84173;DHT22;74302;40.122;18.310;2024-03-23T09:29:46;21.10;56.80
84173;DHT22;74302;40.122;18.310;2024-03-23T09:31:29;21.10;56.80
84173;DHT22;74302;40.122;18.310;2024-03-23T09:33:13;21.10;56.80
84173;DHT22;74302;40.122;18.310;2024-03-23T09:34:56;21.10;56.80
84173;DHT22;74302;40.122;18.310;2024-03-23T09:36:40;21.00;56.80
84173;DHT22;74302;40.122;18.310;2024-03-23T09:38:23;21.00;56.90
84173;DHT22;74302;40.122;18.310;2024-03-23T09:40:07;21.00;56.80
84173;DHT22;74302;40.122;18.310;2024-03-23T09:41:56;21.10;56.70
84173;DHT22;74302;40.122;18.310;2024-03-23T09:43:39;21.10;56.60
84173;DHT22;74302;40.122;18.310;2024-03-23T09:45:26;21.10;56.60
84173;DHT22;74302;40.122;18.310;2024-03-23T09:47:09;21.10;56.70
84173;DHT22;74302;40.122;18.310;2024-03-23T09:48:52;21.20;56.70
84173;DHT22;74302;40.122;18.310;2024-03-23T09:50:36;21.20;56.50
84173;DHT22;74302;40.122;18.310;2024-03-23T09:52:20;21.20;56.50
84173;DHT22;74302;40.122;18.310;2024-03-23T09:54:03;21.20;56.50
84173;DHT22;74302;40.122;18.310;2024-03-23T09:55:45;21.00;56.50
84173;DHT22;74302;40.122;18.310;2024-03-23T09:57:28;20.90;56.70
84173;DHT22;74302;40.122;18.310;2024-03-23T09:59:11;20.90;56.80
84173;DHT22;74302;40.122;18.310;2024-03-23T10:00:53;20.90;56.80
84173;DHT22;74302;40.122;18.310;2024-03-23T10:02:37;20.80;56.70
84173;DHT22;74302;40.122;18.310;2024-03-23T10:04:38;20.80;56.70
84173;DHT22;74302;40.122;18.310;2024-03-23T10:06:22;20.90;56.70
84173;DHT22;74302;40.122;18.310;2024-03-23T10:08:19;21.00;56.70
84173;DHT22;74302;40.122;18.310;2024-03-23T10:10:10;21.00;56.60
84173;DHT22;74302;40.122;18.310;2024-03-23T10:11:53;21.00;56.60
84173;DHT22;74302;40.122;18.310;2024-03-23T10:13:50;21.10;56.60
84173;DHT22;74302;40.122;18.310;2024-03-23T10:15:34;21.10;56.40
84173;DHT22;74302;40.122;18.310;2024-03-23T10:17:18;21.10;56.50
84173;DHT22;74302;40.122;18.310;2024-03-23T10:19:01;21.10;56.50
84173;DHT22;74302;40.122;18.310;2024-03-23T10:20:43;21.20;56.50
84173;DHT22;74302;40.122;18.310;2024-03-23T10:22:27;21.20;56.40
84173;DHT22;74302;40.122;18.310;2024-03-23T10:24:11;21.20;56.30
84173;DHT22;74302;40.122;18.310;2024-03-23T10:25:55;21.20;56.30
84173;DHT22;74302;40.122;18.310;2024-03-23T10:27:37;21.20;56.30
84173;DHT22;74302;40.122;18.310;2024-03-23T10:29:19;21.20;56.40
84173;DHT22;74302;40.122;18.310;2024-03-23T10:31:11;21.20;56.40
84173;DHT22;74302;40.122;18.310;2024-03-23T10:33:07;21.20;56.40
84173;DHT22;74302;40.122;18.310;2024-03-23T10:34:50;21.20;56.40
84173;DHT22;74302;40.122;18.310;2024-03-23T10:36:32;21.20;56.40
84173;DHT22;74302;40.122;18.310;2024-03-23T10:38:17;21.20;56.40
84173;DHT22;74302;40.122;18.310;2024-03-23T10:40:00;21.20;56.40
84173;DHT22;74302;40.122;18.310;2024-03-23T10:41:48;21.20;56.40
84173;DHT22;74302;40.122;18.310;2024-03-23T10:43:33;21.20;56.40
84173;DHT22;74302;40.122;18.310;2024-03-23T10:45:16;21.20;56.40
84173;DHT22;74302;40.122;18.310;2024-03-23T10:46:59;21.20;56.40
84173;DHT22;74302;40.122;18.310;2024-03-23T10:48:43;21.20;56.40
84173;DHT22;74302;40.122;18.310;2024-03-23T10:50:26;21.20;56.40
84173;DHT22;74302;40.122;18.310;2024-03-23T10:52:09;21.20;56.40
84173;DHT22;74302;40.122;18.310;2024-03-23T10:53:53;21.20;56.50
84173;DHT22;74302;40.122;18.310;2024-03-23T10:55:40;21.20;56.40
84173;DHT22;74302;40.122;18.310;2024-03-23T10:57:29;21.20;56.50
84173;DHT22;74302;40.122;18.310;2024-03-23T10:59:13;21.20;56.50
84173;DHT22;74302;40.122;18.310;2024-03-23T11:00:55;21.10;56.50
84173;DHT22;74302;40.122;18.310;2024-03-23T11:02:39;21.20;56.50
84173;DHT22;74302;40.122;18.310;2024-03-23T11:04:32;21.20;56.40
84173;DHT22;74302;40.122;18.310;2024-03-23T11:06:34;21.20;56.40
84173;DHT22;74302;40.122;18.310;2024-03-23T11:08:33;21.10;56.50
84173;DHT22;74302;40.122;18.310;2024-03-23T11:10:25;21.00;56.50
84173;DHT22;74302;40.122;18.310;2024-03-23T11:12:42;20.90;56.70
84173;DHT22;74302;40.122;18.310;2024-03-23T11:14:25;20.80;56.90
84173;DHT22;74302;40.122;18.310;2024-03-23T11:16:14;20.70;57.00
84173;DHT22;74302;40.122;18.310;2024-03-23T11:18:07;20.70;57.10
84173;DHT22;74302;40.122;18.310;2024-03-23T11:19:55;20.60;57.10
84173;DHT22;74302;40.122;18.310;2024-03-23T11:21:55;20.60;57.20
84173;DHT22;74302;40.122;18.310;2024-03-23T11:23:37;20.50;57.20
84173;DHT22;74302;40.122;18.310;2024-03-23T11:25:21;20.50;57.20
84173;DHT22;74302;40.122;18.310;2024-03-23T11:27:15;20.50;57.20
84173;DHT22;74302;40.122;18.310;2024-03-23T11:29:10;20.60;57.20
84173;DHT22;74302;40.122;18.310;2024-03-23T11:30:54;20.50;57.20
84173;DHT22;74302;40.122;18.310;2024-03-23T11:32:36;20.50;57.20
84173;DHT22;74302;40.122;18.310;2024-03-23T11:34:19;20.50;57.10
84173;DHT22;74302;40.122;18.310;2024-03-23T11:36:02;20.50;57.20
84173;DHT22;74302;40.122;18.310;2024-03-23T11:37:45;20.40;57.20